Time,TemperatureF,DewpointF,PressureIn,WindDirection,WindDirectionDegrees,WindSpeedMPH,WindSpeedGustMPH,Humidity,HourlyPrecipIn,Conditions,Clouds,dailyrainin,SoftwareType,DateUTC
2013-08-23 00:00:00,69.4,65.6,30.21,North,0,0.0,0.0,88,0.00,,,0.69,WUHU216HW,2013-08-23 04:00:00,
2013-08-23 00:01:00,69.4,65.6,30.21,North,0,0.0,0.0,88,0.00,,,0.00,WUHU216HW,2013-08-23 04:01:00,
2013-08-23 00:06:00,69.2,65.5,30.21,North,0,0.0,0.0,88,0.00,,,0.00,WUHU216HW,2013-08-23 04:06:00,
2013-08-23 00:11:00,69.0,65.3,30.22,NW,315,0.0,0.0,88,0.00,,,0.00,WUHU216HW,2013-08-23 04:11:00,
2013-08-23 00:16:00,69.0,65.3,30.22,NW,315,0.0,0.0,88,0.00,,,0.00,WUHU216HW,2013-08-23 04:16:00,
2013-08-23 00:21:00,69.0,65.3,30.22,NW,315,0.0,0.0,88,0.00,,,0.00,WUHU216HW,2013-08-23 04:21:00,
2013-08-23 00:26:00,69.0,65.3,30.22,NW,315,0.0,0.0,88,0.00,,,0.00,WUHU216HW,2013-08-23 04:26:00,
2013-08-23 00:31:00,68.9,65.1,30.22,North,0,0.0,0.0,88,0.00,,,0.00,WUHU216HW,2013-08-23 04:31:00,
2013-08-23 00:36:00,68.9,65.1,30.22,North,0,0.0,0.0,88,0.00,,,0.00,WUHU216HW,2013-08-23 04:36:00,
2013-08-23 00:41:00,68.9,65.1,30.22,NNW,338,0.0,0.0,88,0.00,,,0.00,WUHU216HW,2013-08-23 04:41:00,
2013-08-23 00:46:00,68.7,65.1,30.22,North,0,0.0,0.0,88,0.00,,,0.00,WUHU216HW,2013-08-23 04:46:00,
2013-08-23 00:51:00,68.9,65.1,30.22,North,0,0.0,0.0,88,0.00,,,0.00,WUHU216HW,2013-08-23 04:51:00,
2013-08-23 00:56:00,68.9,65.4,30.22,NNE,23,0.0,0.0,89,0.00,,,0.00,WUHU216HW,2013-08-23 04:56:00,
2013-08-23 01:01:00,68.9,65.4,30.22,North,0,1.3,1.3,89,0.00,,,0.00,WUHU216HW,2013-08-23 05:01:00,
2013-08-23 01:10:00,68.9,65.4,30.22,North,0,1.3,1.3,89,0.00,,,0.00,WUHU216HW,2013-08-23 05:10:00,
2013-08-23 01:15:00,69.0,65.6,30.22,North,0,2.0,2.0,89,0.00,,,0.00,WUHU216HW,2013-08-23 05:15:00,
2013-08-23 01:20:00,69.0,65.6,30.22,North,0,0.0,2.0,89,0.00,,,0.00,WUHU216HW,2013-08-23 05:20:00,
2013-08-23 01:25:00,69.0,65.6,30.22,North,0,0.0,0.0,89,0.00,,,0.00,WUHU216HW,2013-08-23 05:25:00,
2013-08-23 01:29:00,69.0,65.6,30.22,North,0,0.0,0.0,89,0.00,,,0.00,WUHU216HW,2013-08-23 05:29:00,
2013-08-23 01:34:00,69.0,65.6,30.22,North,0,0.0,0.0,89,0.00,,,0.00,WUHU216HW,2013-08-23 05:34:00,
2013-08-23 01:39:00,69.0,65.6,30.22,North,0,0.0,0.0,89,0.00,,,0.00,WUHU216HW,2013-08-23 05:39:00,
2013-08-23 01:44:00,69.0,65.6,30.22,North,0,0.0,0.0,89,0.00,,,0.00,WUHU216HW,2013-08-23 05:44:00,
2013-08-23 01:49:00,69.0,65.6,30.22,North,0,0.0,0.0,89,0.00,,,0.00,WUHU216HW,2013-08-23 05:49:00,
2013-08-23 01:54:00,69.0,65.6,30.22,North,0,0.0,0.0,89,0.00,,,0.00,WUHU216HW,2013-08-23 05:54:00,
2013-08-23 01:59:00,69.0,65.6,30.22,North,0,0.0,0.0,89,0.00,,,0.00,WUHU216HW,2013-08-23 05:59:00,
2013-08-23 02:10:00,69.0,65.6,30.22,North,0,0.0,0.0,89,0.00,,,0.00,WUHU216HW,2013-08-23 06:10:00,
2013-08-23 02:15:00,69.0,65.6,30.22,North,0,0.0,0.0,89,0.00,,,0.00,WUHU216HW,2013-08-23 06:15:00,
2013-08-23 02:20:00,69.0,65.6,30.22,North,0,0.0,0.0,89,0.00,,,0.00,WUHU216HW,2013-08-23 06:20:00,
2013-08-23 02:25:00,69.0,65.6,30.22,North,0,2.9,2.9,89,0.00,,,0.00,WUHU216HW,2013-08-23 06:25:00,
2013-08-23 02:30:00,69.0,65.6,30.22,North,0,0.0,2.9,89,0.00,,,0.00,WUHU216HW,2013-08-23 06:30:00,
2013-08-23 02:35:00,69.0,65.6,30.22,NNE,23,0.0,0.0,89,0.00,,,0.00,WUHU216HW,2013-08-23 06:35:00,
2013-08-23 02:40:00,69.0,65.6,30.22,NNE,23,0.0,0.0,89,0.00,,,0.00,WUHU216HW,2013-08-23 06:40:00,
2013-08-23 02:45:00,68.9,65.4,30.22,NNE,23,0.0,0.0,89,0.00,,,0.00,WUHU216HW,2013-08-23 06:45:00,
2013-08-23 02:50:00,68.9,65.4,30.22,NNE,23,0.0,0.0,89,0.00,,,0.00,WUHU216HW,2013-08-23 06:50:00,
2013-08-23 02:55:00,68.9,65.4,30.22,NNE,23,0.0,0.0,89,0.00,,,0.00,WUHU216HW,2013-08-23 06:55:00,
2013-08-23 03:00:00,68.9,65.4,30.22,NNE,23,0.0,0.0,89,0.00,,,0.00,WUHU216HW,2013-08-23 07:00:00,
2013-08-23 03:10:00,68.9,65.4,30.22,NNE,23,0.0,0.0,89,0.00,,,0.00,WUHU216HW,2013-08-23 07:10:00,
2013-08-23 03:14:00,68.7,65.3,30.22,North,0,0.0,0.0,89,0.00,,,0.00,WUHU216HW,2013-08-23 07:14:00,
2013-08-23 03:19:00,68.7,65.3,30.22,North,0,0.0,0.0,89,0.00,,,0.00,WUHU216HW,2013-08-23 07:19:00,
2013-08-23 03:24:00,68.7,65.3,30.22,North,0,0.0,0.0,89,0.00,,,0.00,WUHU216HW,2013-08-23 07:24:00,
2013-08-23 03:29:00,68.7,65.3,30.22,SE,135,0.0,0.0,89,0.00,,,0.00,WUHU216HW,2013-08-23 07:29:00,
2013-08-23 03:34:00,68.7,65.3,30.22,NE,45,0.0,0.0,89,0.00,,,0.00,WUHU216HW,2013-08-23 07:34:00,
2013-08-23 03:39:00,68.7,65.3,30.22,ENE,68,0.0,0.0,89,0.00,,,0.00,WUHU216HW,2013-08-23 07:39:00,
2013-08-23 03:44:00,68.7,65.3,30.21,ENE,68,0.0,0.0,89,0.00,,,0.00,WUHU216HW,2013-08-23 07:44:00,
2013-08-23 03:49:00,68.7,65.3,30.21,North,0,0.0,0.0,89,0.00,,,0.00,WUHU216HW,2013-08-23 07:49:00,
2013-08-23 03:54:00,68.7,65.3,30.21,East,90,0.0,0.0,89,0.00,,,0.00,WUHU216HW,2013-08-23 07:54:00,
2013-08-23 03:59:00,68.7,65.3,30.21,East,90,0.0,0.0,89,0.00,,,0.00,WUHU216HW,2013-08-23 07:59:00,
2013-08-23 04:10:00,68.7,65.3,30.21,East,90,0.0,0.0,89,0.00,,,0.00,WUHU216HW,2013-08-23 08:10:00,
2013-08-23 04:15:00,68.3,64.9,30.21,ENE,68,0.0,0.0,89,0.00,,,0.00,WUHU216HW,2013-08-23 08:15:00,
2013-08-23 04:20:00,68.3,64.9,30.21,East,90,0.0,0.0,89,0.00,,,0.00,WUHU216HW,2013-08-23 08:20:00,
2013-08-23 04:25:00,68.1,64.7,30.21,East,90,0.0,0.0,89,0.00,,,0.00,WUHU216HW,2013-08-23 08:25:00,
2013-08-23 04:30:00,68.1,64.7,30.21,ENE,68,0.0,0.0,89,0.00,,,0.00,WUHU216HW,2013-08-23 08:30:00,
2013-08-23 04:35:00,67.8,64.4,30.21,ENE,68,0.0,0.0,89,0.00,,,0.00,WUHU216HW,2013-08-23 08:35:00,
2013-08-23 04:40:00,67.8,64.4,30.21,ENE,68,0.0,0.0,89,0.00,,,0.00,WUHU216HW,2013-08-23 08:40:00,
2013-08-23 04:45:00,67.8,64.4,30.21,ENE,68,0.0,0.0,89,0.00,,,0.00,WUHU216HW,2013-08-23 08:45:00,
2013-08-23 04:50:00,67.6,64.2,30.21,ENE,68,0.0,0.0,89,0.00,,,0.00,WUHU216HW,2013-08-23 08:50:00,
2013-08-23 04:55:00,67.4,64.0,30.21,ENE,68,0.0,0.0,89,0.00,,,0.00,WUHU216HW,2013-08-23 08:55:00,
2013-08-23 05:00:00,67.2,63.8,30.21,ENE,68,0.0,0.0,89,0.00,,,0.00,WUHU216HW,2013-08-23 09:00:00,
2013-08-23 05:10:00,67.2,63.8,30.21,ENE,68,0.0,0.0,89,0.00,,,0.00,WUHU216HW,2013-08-23 09:10:00,
2013-08-23 05:15:00,66.9,63.5,30.21,ENE,68,0.0,0.0,89,0.00,,,0.00,WUHU216HW,2013-08-23 09:15:00,
2013-08-23 05:20:00,66.9,63.5,30.21,ENE,68,0.0,0.0,89,0.00,,,0.00,WUHU216HW,2013-08-23 09:20:00,
2013-08-23 05:25:00,66.7,63.3,30.21,ENE,68,0.0,0.0,89,0.00,,,0.00,WUHU216HW,2013-08-23 09:25:00,
2013-08-23 05:30:00,66.7,63.3,30.21,ENE,68,0.0,0.0,89,0.00,,,0.00,WUHU216HW,2013-08-23 09:30:00,
2013-08-23 05:35:00,66.7,63.3,30.22,ENE,68,0.0,0.0,89,0.00,,,0.00,WUHU216HW,2013-08-23 09:35:00,
2013-08-23 05:40:00,66.7,63.3,30.22,ENE,68,0.0,0.0,89,0.00,,,0.00,WUHU216HW,2013-08-23 09:40:00,
2013-08-23 05:45:00,66.5,63.1,30.22,ENE,68,0.0,0.0,89,0.00,,,0.00,WUHU216HW,2013-08-23 09:45:00,
2013-08-23 05:50:00,66.5,63.1,30.21,ENE,68,0.0,0.0,89,0.00,,,0.00,WUHU216HW,2013-08-23 09:50:00,
2013-08-23 05:55:00,66.3,62.9,30.21,ENE,68,0.0,0.0,89,0.00,,,0.00,WUHU216HW,2013-08-23 09:55:00,
2013-08-23 06:00:00,66.3,62.9,30.21,ENE,68,0.0,0.0,89,0.00,,,0.00,WUHU216HW,2013-08-23 10:00:00,
2013-08-23 06:10:00,66.3,62.9,30.21,ENE,68,0.0,0.0,89,0.00,,,0.00,WUHU216HW,2013-08-23 10:10:00,
2013-08-23 06:15:00,66.3,62.9,30.22,ENE,68,0.0,0.0,89,0.00,,,0.00,WUHU216HW,2013-08-23 10:15:00,
2013-08-23 06:20:00,66.2,62.8,30.22,ENE,68,0.0,0.0,89,0.00,,,0.00,WUHU216HW,2013-08-23 10:20:00,
2013-08-23 06:25:00,66.2,62.8,30.22,ENE,68,0.0,0.0,89,0.00,,,0.00,WUHU216HW,2013-08-23 10:25:00,
2013-08-23 06:30:00,66.0,62.6,30.22,ENE,68,0.0,0.0,89,0.00,,,0.00,WUHU216HW,2013-08-23 10:30:00,
2013-08-23 06:35:00,66.0,62.6,30.23,ENE,68,0.0,0.0,89,0.00,,,0.00,WUHU216HW,2013-08-23 10:35:00,
2013-08-23 06:40:00,66.0,62.6,30.23,ENE,68,0.0,0.0,89,0.00,,,0.00,WUHU216HW,2013-08-23 10:40:00,
2013-08-23 06:45:00,65.8,62.4,30.23,ENE,68,0.0,0.0,89,0.00,,,0.00,WUHU216HW,2013-08-23 10:45:00,
2013-08-23 06:50:00,65.8,62.4,30.23,ENE,68,0.0,0.0,89,0.00,,,0.00,WUHU216HW,2013-08-23 10:50:00,
2013-08-23 06:55:00,65.6,62.3,30.23,ENE,68,0.0,0.0,89,0.00,,,0.00,WUHU216HW,2013-08-23 10:55:00,
2013-08-23 07:00:00,65.4,62.1,30.23,ENE,68,0.0,0.0,89,0.00,,,0.00,WUHU216HW,2013-08-23 11:00:00,
2013-08-23 07:05:00,65.4,62.1,30.23,ENE,68,0.0,0.0,89,0.00,,,0.00,WUHU216HW,2013-08-23 11:05:00,
2013-08-23 07:10:00,65.3,61.9,30.24,ENE,68,0.0,0.0,89,0.00,,,0.00,WUHU216HW,2013-08-23 11:10:00,
2013-08-23 07:15:00,65.1,61.8,30.24,ENE,68,0.0,0.0,89,0.00,,,0.00,WUHU216HW,2013-08-23 11:15:00,
2013-08-23 07:20:00,65.1,61.8,30.24,ENE,68,0.0,0.0,89,0.00,,,0.00,WUHU216HW,2013-08-23 11:20:00,
2013-08-23 07:25:00,65.1,61.8,30.25,ENE,68,0.0,0.0,89,0.00,,,0.00,WUHU216HW,2013-08-23 11:25:00,
2013-08-23 07:30:00,64.9,61.6,30.25,ENE,68,0.0,0.0,89,0.00,,,0.00,WUHU216HW,2013-08-23 11:30:00,
2013-08-23 07:35:00,64.9,61.6,30.25,ENE,68,0.0,0.0,89,0.00,,,0.00,WUHU216HW,2013-08-23 11:35:00,
2013-08-23 07:40:00,64.9,61.6,30.25,ENE,68,0.0,0.0,89,0.00,,,0.00,WUHU216HW,2013-08-23 11:40:00,
2013-08-23 07:45:00,64.9,61.6,30.25,ENE,68,0.0,0.0,89,0.00,,,0.00,WUHU216HW,2013-08-23 11:45:00,
2013-08-23 07:50:00,64.7,61.8,30.25,ENE,68,0.0,0.0,90,0.00,,,0.00,WUHU216HW,2013-08-23 11:50:00,
2013-08-23 07:55:00,64.9,61.6,30.26,ENE,68,0.0,0.0,89,0.00,,,0.00,WUHU216HW,2013-08-23 11:55:00,
2013-08-23 08:00:00,64.9,62.0,30.26,ENE,68,0.0,0.0,90,0.00,,,0.00,WUHU216HW,2013-08-23 12:00:00,
2013-08-23 08:05:00,64.9,62.0,30.26,ENE,68,0.0,0.0,90,0.00,,,0.00,WUHU216HW,2013-08-23 12:05:00,
2013-08-23 08:10:00,64.7,61.8,30.26,NE,45,0.0,0.0,90,0.00,,,0.00,WUHU216HW,2013-08-23 12:10:00,
2013-08-23 08:15:00,64.9,62.0,30.25,NE,45,0.0,0.0,90,0.00,,,0.00,WUHU216HW,2013-08-23 12:15:00,
2013-08-23 08:20:00,64.9,62.0,30.26,NE,45,0.0,0.0,90,0.00,,,0.00,WUHU216HW,2013-08-23 12:20:00,
2013-08-23 08:25:00,64.9,62.0,30.26,NE,45,0.0,0.0,90,0.00,,,0.00,WUHU216HW,2013-08-23 12:25:00,
2013-08-23 08:30:00,65.1,62.1,30.26,ENE,68,0.0,0.0,90,0.00,,,0.00,WUHU216HW,2013-08-23 12:30:00,
2013-08-23 08:35:00,65.1,62.1,30.25,ENE,68,0.0,0.0,90,0.00,,,0.00,WUHU216HW,2013-08-23 12:35:00,
2013-08-23 08:40:00,65.3,62.3,30.25,North,0,0.0,0.0,90,0.00,,,0.00,WUHU216HW,2013-08-23 12:40:00,
2013-08-23 08:45:00,65.3,62.3,30.25,East,90,0.0,0.0,90,0.00,,,0.00,WUHU216HW,2013-08-23 12:45:00,
2013-08-23 08:50:00,65.4,62.1,30.26,ENE,68,0.0,0.0,89,0.00,,,0.00,WUHU216HW,2013-08-23 12:50:00,
2013-08-23 08:55:00,65.8,62.4,30.26,ENE,68,0.0,0.0,89,0.00,,,0.00,WUHU216HW,2013-08-23 12:55:00,
2013-08-23 09:00:00,66.0,62.6,30.26,ENE,68,0.0,0.0,89,0.00,,,0.00,WUHU216HW,2013-08-23 13:00:00,
2013-08-23 09:05:00,66.2,62.8,30.26,East,90,0.0,0.0,89,0.00,,,0.00,WUHU216HW,2013-08-23 13:05:00,
2013-08-23 09:10:00,66.3,62.6,30.26,NE,45,0.0,0.0,88,0.00,,,0.00,WUHU216HW,2013-08-23 13:10:00,
2013-08-23 09:14:00,66.7,63.0,30.26,ENE,68,0.0,0.0,88,0.00,,,0.00,WUHU216HW,2013-08-23 13:14:00,
2013-08-23 09:20:00,66.7,63.0,30.27,East,90,0.0,0.0,88,0.00,,,0.00,WUHU216HW,2013-08-23 13:20:00,
2013-08-23 09:24:00,66.9,62.8,30.26,East,90,0.0,0.0,87,0.00,,,0.00,WUHU216HW,2013-08-23 13:24:00,
2013-08-23 09:29:00,67.2,62.9,30.27,NE,45,0.0,0.8,86,0.00,,,0.00,WUHU216HW,2013-08-23 13:29:00,
2013-08-23 09:34:00,67.2,62.9,30.26,ENE,68,0.0,0.8,86,0.00,,,0.00,WUHU216HW,2013-08-23 13:34:00,
2013-08-23 09:39:00,67.8,63.1,30.27,ENE,68,0.0,1.5,85,0.00,,,0.00,WUHU216HW,2013-08-23 13:39:00,
2013-08-23 09:44:00,67.8,62.8,30.27,NE,45,0.0,1.5,84,0.00,,,0.00,WUHU216HW,2013-08-23 13:44:00,
2013-08-23 09:49:00,68.0,62.6,30.28,NE,45,0.0,0.0,83,0.00,,,0.00,WUHU216HW,2013-08-23 13:49:00,
2013-08-23 09:54:00,68.3,62.6,30.28,ENE,68,0.0,0.8,82,0.00,,,0.00,WUHU216HW,2013-08-23 13:54:00,
2013-08-23 09:59:00,68.5,62.5,30.27,ENE,68,0.0,0.8,81,0.00,,,0.00,WUHU216HW,2013-08-23 13:59:00,
2013-08-23 10:04:00,68.7,62.3,30.28,ESE,113,0.0,0.8,80,0.00,,,0.00,WUHU216HW,2013-08-23 14:04:00,
2013-08-23 10:09:00,69.4,62.6,30.28,ENE,68,3.3,3.3,79,0.00,,,0.00,WUHU216HW,2013-08-23 14:09:00,
2013-08-23 10:14:00,69.6,62.0,30.28,ESE,113,0.0,3.3,77,0.00,,,0.00,WUHU216HW,2013-08-23 14:14:00,
2013-08-23 10:19:00,70.3,62.7,30.28,ESE,113,0.0,3.3,77,0.00,,,0.00,WUHU216HW,2013-08-23 14:19:00,
2013-08-23 10:24:00,71.2,63.2,30.28,ENE,68,0.0,1.1,76,0.00,,,0.00,WUHU216HW,2013-08-23 14:24:00,
2013-08-23 10:29:00,71.7,63.7,30.29,ENE,68,0.0,0.0,76,0.00,,,0.00,WUHU216HW,2013-08-23 14:29:00,
2013-08-23 10:34:00,72.8,64.1,30.29,ESE,113,2.6,2.6,74,0.00,,,0.00,WUHU216HW,2013-08-23 14:34:00,
2013-08-23 10:39:00,73.2,62.9,30.28,East,90,2.2,2.6,70,0.00,,,0.00,WUHU216HW,2013-08-23 14:39:00,
2013-08-23 10:44:00,73.5,62.8,30.29,NE,45,0.0,2.6,69,0.00,,,0.00,WUHU216HW,2013-08-23 14:44:00,
2013-08-23 10:49:00,74.8,63.5,30.29,SE,135,0.0,0.0,68,0.00,,,0.00,WUHU216HW,2013-08-23 14:49:00,
2013-08-23 10:54:00,75.0,62.8,30.28,East,90,0.6,0.6,66,0.00,,,0.00,WUHU216HW,2013-08-23 14:54:00,
2013-08-23 10:59:00,75.3,62.3,30.29,ESE,113,0.0,0.6,64,0.00,,,0.00,WUHU216HW,2013-08-23 14:59:00,
2013-08-23 11:04:00,75.9,62.4,30.29,East,90,1.7,2.6,63,0.00,,,0.00,WUHU216HW,2013-08-23 15:04:00,
2013-08-23 11:09:00,76.2,61.8,30.29,East,90,0.8,2.6,61,0.00,,,0.00,WUHU216HW,2013-08-23 15:09:00,
2013-08-23 11:14:00,76.8,62.7,30.28,ENE,68,0.0,1.7,62,0.00,,,0.00,WUHU216HW,2013-08-23 15:14:00,
2013-08-23 11:19:00,77.5,63.4,30.29,ENE,68,0.8,0.8,62,0.00,,,0.00,WUHU216HW,2013-08-23 15:19:00,
2013-08-23 11:24:00,78.4,63.9,30.29,NE,45,0.0,0.8,61,0.00,,,0.00,WUHU216HW,2013-08-23 15:24:00,
2013-08-23 11:29:00,79.1,63.6,30.29,NNE,23,0.0,0.8,59,0.00,,,0.00,WUHU216HW,2013-08-23 15:29:00,
2013-08-23 11:34:00,79.8,63.2,30.29,NE,45,0.0,0.6,57,0.00,,,0.00,WUHU216HW,2013-08-23 15:34:00,
2013-08-23 11:39:00,80.2,62.5,30.29,East,90,0.0,0.6,55,0.00,,,0.00,WUHU216HW,2013-08-23 15:39:00,
2013-08-23 11:44:00,80.7,63.0,30.29,NE,45,0.0,0.0,55,0.00,,,0.00,WUHU216HW,2013-08-23 15:44:00,
2013-08-23 11:49:00,81.3,62.4,30.29,ENE,68,0.0,0.8,53,0.00,,,0.00,WUHU216HW,2013-08-23 15:49:00,
2013-08-23 11:54:00,81.5,61.5,30.29,ESE,113,0.0,0.8,51,0.00,,,0.00,WUHU216HW,2013-08-23 15:54:00,
2013-08-23 11:59:00,81.6,62.2,30.29,ENE,68,0.0,0.6,52,0.00,,,0.00,WUHU216HW,2013-08-23 15:59:00,
2013-08-23 12:04:00,82.2,62.2,30.29,ESE,113,0.0,0.6,51,0.00,,,0.00,WUHU216HW,2013-08-23 16:04:00,
2013-08-23 12:09:00,82.5,62.0,30.29,ENE,68,0.0,1.1,50,0.00,,,0.00,WUHU216HW,2013-08-23 16:09:00,
2013-08-23 12:14:00,82.2,60.4,30.29,ENE,68,0.0,1.1,48,0.00,,,0.00,WUHU216HW,2013-08-23 16:14:00,
2013-08-23 12:19:00,82.0,60.3,30.29,NE,45,0.0,0.8,48,0.00,,,0.00,WUHU216HW,2013-08-23 16:19:00,
2013-08-23 12:24:00,82.2,60.4,30.29,NE,45,0.0,2.4,48,0.00,,,0.00,WUHU216HW,2013-08-23 16:24:00,
2013-08-23 12:29:00,82.9,61.1,30.29,East,90,0.0,2.4,48,0.00,,,0.00,WUHU216HW,2013-08-23 16:29:00,
2013-08-23 12:34:00,83.1,60.1,30.29,SE,135,3.1,3.1,46,0.00,,,0.00,WUHU216HW,2013-08-23 16:34:00,
2013-08-23 12:39:00,82.9,59.9,30.29,ESE,113,0.0,3.1,46,0.00,,,0.00,WUHU216HW,2013-08-23 16:39:00,
2013-08-23 12:44:00,82.7,59.5,30.28,NE,45,0.0,3.1,47,0.00,,,0.00,WUHU216HW,2013-08-23 16:44:00,
2013-08-23 12:49:00,83.1,60.1,30.28,North,0,2.0,2.0,46,0.00,,,0.00,WUHU216HW,2013-08-23 16:49:00,
2013-08-23 12:54:00,83.3,60.2,30.28,NNE,23,0.0,2.0,46,0.00,,,0.00,WUHU216HW,2013-08-23 16:54:00,
2013-08-23 12:59:00,83.4,60.4,30.28,NE,45,0.8,4.4,46,0.00,,,0.00,WUHU216HW,2013-08-23 16:59:00,
2013-08-23 13:04:00,83.8,59.5,30.28,NE,45,0.0,4.4,44,0.00,,,0.00,WUHU216HW,2013-08-23 17:04:00,
2013-08-23 13:09:00,83.8,59.5,30.27,NE,45,0.8,0.8,44,0.00,,,0.00,WUHU216HW,2013-08-23 17:09:00,
2013-08-23 13:14:00,83.4,59.2,30.28,NE,45,0.8,1.5,44,0.00,,,0.00,WUHU216HW,2013-08-23 17:14:00,
2013-08-23 13:19:00,83.8,58.9,30.27,NNE,23,0.0,1.5,43,0.00,,,0.00,WUHU216HW,2013-08-23 17:19:00,
2013-08-23 13:24:00,84.0,59.0,30.27,North,0,0.0,0.8,43,0.00,,,0.00,WUHU216HW,2013-08-23 17:24:00,
2013-08-23 13:29:00,84.3,60.0,30.27,NE,45,0.0,2.6,44,0.00,,,0.00,WUHU216HW,2013-08-23 17:29:00,
2013-08-23 13:34:00,84.7,60.3,30.27,NE,45,0.0,2.6,44,0.00,,,0.00,WUHU216HW,2013-08-23 17:34:00,
2013-08-23 13:39:00,84.9,59.9,30.27,NNE,23,0.6,2.2,43,0.00,,,0.00,WUHU216HW,2013-08-23 17:39:00,
2013-08-23 13:44:00,85.2,60.2,30.27,SE,135,0.0,2.2,43,0.00,,,0.00,WUHU216HW,2013-08-23 17:44:00,
2013-08-23 13:49:00,85.1,60.0,30.27,ENE,68,0.0,0.6,43,0.00,,,0.00,WUHU216HW,2013-08-23 17:49:00,
2013-08-23 13:54:00,85.2,60.2,30.27,ENE,68,0.0,3.3,43,0.00,,,0.00,WUHU216HW,2013-08-23 17:54:00,
2013-08-23 13:59:00,85.2,59.9,30.27,East,90,0.0,3.3,40,0.00,,,0.00,WUHU216HW,2013-08-23 17:59:00,
2013-08-23 14:04:00,84.7,57.8,30.27,ESE,113,3.5,3.5,40,0.00,,,0.00,WUHU216HW,2013-08-23 18:04:00,
2013-08-23 14:09:00,84.3,58.8,30.27,ENE,68,0.0,3.5,42,0.00,,,0.00,WUHU216HW,2013-08-23 18:09:00,
2013-08-23 14:14:00,85.6,59.9,30.28,ENE,68,0.0,3.5,42,0.00,,,0.00,WUHU216HW,2013-08-23 18:14:00,
2013-08-23 14:19:00,86.1,62.3,30.28,NNW,338,1.3,1.3,45,0.00,,,0.00,WUHU216HW,2013-08-23 18:19:00,
2013-08-23 14:24:00,86.7,62.7,30.27,NNW,338,0.0,4.2,45,0.00,,,0.00,WUHU216HW,2013-08-23 18:24:00,
2013-08-23 14:29:00,87.9,63.2,30.27,NNE,23,2.2,4.2,44,0.00,,,0.00,WUHU216HW,2013-08-23 18:29:00,
2013-08-23 14:34:00,88.3,63.5,30.27,North,0,1.3,2.2,44,0.00,,,0.00,WUHU216HW,2013-08-23 18:34:00,
2013-08-23 14:39:00,88.7,63.8,30.27,North,0,0.0,2.2,44,0.00,,,0.00,WUHU216HW,2013-08-23 18:39:00,
2013-08-23 14:44:00,89.4,64.4,30.27,North,0,0.0,6.2,44,0.00,,,0.00,WUHU216HW,2013-08-23 18:44:00,
2013-08-23 14:49:00,89.9,64.3,30.27,NE,45,0.6,6.2,43,0.00,,,0.00,WUHU216HW,2013-08-23 18:49:00,
2013-08-23 14:54:00,90.3,64.6,30.26,NE,45,0.0,1.3,43,0.00,,,0.00,WUHU216HW,2013-08-23 18:54:00,
2013-08-23 14:59:00,90.5,64.1,30.26,NE,45,0.0,0.6,42,0.00,,,0.00,WUHU216HW,2013-08-23 18:59:00,
2013-08-23 15:04:00,91.0,64.0,30.26,NNE,23,0.0,0.0,41,0.00,,,0.00,WUHU216HW,2013-08-23 19:04:00,
2013-08-23 15:09:00,91.2,64.1,30.26,North,0,0.0,0.0,41,0.00,,,0.00,WUHU216HW,2013-08-23 19:09:00,
2013-08-23 15:14:00,91.2,64.1,30.27,North,0,3.8,3.8,41,0.00,,,0.00,WUHU216HW,2013-08-23 19:14:00,
2013-08-23 15:19:00,91.5,65.1,30.27,North,0,1.5,3.8,42,0.00,,,0.00,WUHU216HW,2013-08-23 19:19:00,
2013-08-23 15:24:00,91.2,64.8,30.27,NNE,23,0.0,3.8,42,0.00,,,0.00,WUHU216HW,2013-08-23 19:24:00,
2013-08-23 15:29:00,91.2,64.1,30.26,NE,45,0.0,2.2,41,0.00,,,0.00,WUHU216HW,2013-08-23 19:29:00,
2013-08-23 15:34:00,91.2,64.1,30.26,NNE,23,0.6,2.2,41,0.00,,,0.00,WUHU216HW,2013-08-23 19:34:00,
2013-08-23 15:39:00,91.5,63.8,30.26,NNE,23,0.0,0.6,40,0.00,,,0.00,WUHU216HW,2013-08-23 19:39:00,
2013-08-23 15:44:00,91.4,63.6,30.26,NNW,338,1.3,2.2,40,0.00,,,0.00,WUHU216HW,2013-08-23 19:44:00,
2013-08-23 15:49:00,91.2,63.5,30.26,North,0,2.4,3.5,40,0.00,,,0.00,WUHU216HW,2013-08-23 19:49:00,
2013-08-23 15:54:00,91.2,63.5,30.26,North,0,0.0,3.5,40,0.00,,,0.00,WUHU216HW,2013-08-23 19:54:00,
2013-08-23 15:59:00,91.0,64.0,30.26,NW,315,0.0,2.9,41,0.00,,,0.00,WUHU216HW,2013-08-23 19:59:00,
2013-08-23 16:04:00,91.2,64.1,30.26,NE,45,4.6,4.6,41,0.00,,,0.00,WUHU216HW,2013-08-23 20:04:00,
2013-08-23 16:09:00,91.7,64.0,30.26,NNE,23,0.0,4.6,40,0.00,,,0.00,WUHU216HW,2013-08-23 20:09:00,
2013-08-23 16:14:00,91.9,64.1,30.26,North,0,5.1,5.1,40,0.00,,,0.00,WUHU216HW,2013-08-23 20:14:00,
2013-08-23 16:19:00,91.7,64.0,30.26,NNW,338,1.5,5.1,40,0.00,,,0.00,WUHU216HW,2013-08-23 20:19:00,
2013-08-23 16:24:00,91.9,64.1,30.26,NE,45,0.0,1.5,40,0.00,,,0.00,WUHU216HW,2013-08-23 20:24:00,
2013-08-23 16:29:00,91.9,64.1,30.26,North,0,0.0,1.5,40,0.00,,,0.00,WUHU216HW,2013-08-23 20:29:00,
2013-08-23 16:34:00,91.9,63.3,30.26,NE,45,0.0,2.2,39,0.00,,,0.00,WUHU216HW,2013-08-23 20:34:00,
2013-08-23 16:39:00,92.1,63.5,30.26,North,0,3.8,3.8,39,0.00,,,0.00,WUHU216HW,2013-08-23 20:39:00,
2013-08-23 16:44:00,91.9,63.3,30.26,NNW,338,2.4,3.8,39,0.00,,,0.00,WUHU216HW,2013-08-23 20:44:00,
2013-08-23 16:49:00,91.7,63.1,30.26,NNE,23,0.0,3.8,39,0.00,,,0.00,WUHU216HW,2013-08-23 20:49:00,
2013-08-23 16:54:00,91.5,63.0,30.26,North,0,2.6,2.6,39,0.00,,,0.00,WUHU216HW,2013-08-23 20:54:00,
2013-08-23 16:59:00,91.5,63.0,30.26,North,0,0.0,2.6,39,0.00,,,0.00,WUHU216HW,2013-08-23 20:59:00,
2013-08-23 17:04:00,91.5,63.0,30.26,NE,45,0.0,8.9,39,0.00,,,0.00,WUHU216HW,2013-08-23 21:04:00,
2013-08-23 17:09:00,91.4,62.8,30.26,NNW,338,3.8,8.9,39,0.00,,,0.00,WUHU216HW,2013-08-23 21:09:00,
2013-08-23 17:14:00,91.2,62.7,30.26,NNE,23,0.0,3.8,39,0.00,,,0.00,WUHU216HW,2013-08-23 21:14:00,
2013-08-23 17:19:00,91.0,62.5,30.25,NE,45,0.0,3.8,39,0.00,,,0.00,WUHU216HW,2013-08-23 21:19:00,
2013-08-23 17:24:00,91.0,62.5,30.26,NE,45,0.0,1.1,39,0.00,,,0.00,WUHU216HW,2013-08-23 21:24:00,
2013-08-23 17:29:00,91.0,63.3,30.26,NNW,338,0.0,0.0,40,0.00,,,0.00,WUHU216HW,2013-08-23 21:29:00,
2013-08-23 17:34:00,90.8,62.4,30.26,NE,45,0.0,2.4,39,0.00,,,0.00,WUHU216HW,2013-08-23 21:34:00,
2013-08-23 17:39:00,90.5,62.0,30.26,North,0,0.0,2.4,39,0.00,,,0.00,WUHU216HW,2013-08-23 21:39:00,
2013-08-23 17:44:00,90.3,61.9,30.26,North,0,3.8,3.8,39,0.00,,,0.00,WUHU216HW,2013-08-23 21:44:00,
2013-08-23 17:49:00,89.7,61.4,30.26,North,0,0.0,3.8,39,0.00,,,0.00,WUHU216HW,2013-08-23 21:49:00,
2013-08-23 17:54:00,89.4,62.0,30.26,NNE,23,0.0,3.5,40,0.00,,,0.00,WUHU216HW,2013-08-23 21:54:00,
2013-08-23 17:59:00,89.6,62.0,30.26,North,0,0.0,0.0,40,0.00,,,0.00,WUHU216HW,2013-08-23 21:59:00,
2013-08-23 18:04:00,89.4,61.9,30.26,North,0,8.7,8.7,40,0.00,,,0.00,WUHU216HW,2013-08-23 22:04:00,
2013-08-23 18:09:00,89.2,61.7,30.26,NE,45,0.0,8.7,40,0.00,,,0.00,WUHU216HW,2013-08-23 22:09:00,
2013-08-23 18:14:00,89.2,62.4,30.25,NE,45,1.5,8.7,41,0.00,,,0.00,WUHU216HW,2013-08-23 22:14:00,
2013-08-23 18:19:00,89.0,61.6,30.26,NE,45,2.2,2.2,40,0.00,,,0.00,WUHU216HW,2013-08-23 22:19:00,
2013-08-23 18:24:00,88.7,61.3,30.26,NE,45,0.0,3.3,40,0.00,,,0.00,WUHU216HW,2013-08-23 22:24:00,
2013-08-23 18:29:00,88.3,61.0,30.26,North,0,0.0,3.3,40,0.00,,,0.00,WUHU216HW,2013-08-23 22:29:00,
2013-08-23 18:34:00,87.8,61.2,30.26,NNE,23,0.0,2.2,41,0.00,,,0.00,WUHU216HW,2013-08-23 22:34:00,
2013-08-23 18:39:00,87.4,60.9,30.26,North,0,0.0,2.2,41,0.00,,,0.00,WUHU216HW,2013-08-23 22:39:00,
2013-08-23 18:44:00,87.0,60.6,30.26,North,0,0.0,2.2,41,0.00,,,0.00,WUHU216HW,2013-08-23 22:44:00,
2013-08-23 18:49:00,86.7,60.9,30.26,NNE,23,0.0,0.6,42,0.00,,,0.00,WUHU216HW,2013-08-23 22:49:00,
2013-08-23 18:54:00,86.5,60.7,30.26,NNE,23,1.5,1.5,42,0.00,,,0.00,WUHU216HW,2013-08-23 22:54:00,
2013-08-23 18:59:00,86.3,60.5,30.26,NNE,23,0.0,1.5,42,0.00,,,0.00,WUHU216HW,2013-08-23 22:59:00,
2013-08-23 19:04:00,85.8,60.0,30.25,North,0,5.5,5.5,42,0.00,,,0.00,WUHU216HW,2013-08-23 23:04:00,
2013-08-23 19:09:00,85.8,60.0,30.25,NNE,23,0.8,5.5,42,0.00,,,0.00,WUHU216HW,2013-08-23 23:09:00,
2013-08-23 19:14:00,85.6,60.5,30.25,NNW,338,1.1,5.5,43,0.00,,,0.00,WUHU216HW,2013-08-23 23:14:00,
2013-08-23 19:19:00,84.9,59.9,30.25,North,0,0.0,2.0,43,0.00,,,0.00,WUHU216HW,2013-08-23 23:19:00,
2013-08-23 19:24:00,84.7,59.7,30.25,NE,45,0.0,1.3,43,0.00,,,0.00,WUHU216HW,2013-08-23 23:24:00,
2013-08-23 19:29:00,84.5,59.5,30.26,North,0,0.0,0.0,43,0.00,,,0.00,WUHU216HW,2013-08-23 23:29:00,
2013-08-23 19:34:00,84.0,59.7,30.26,North,0,0.0,0.0,44,0.00,,,0.00,WUHU216HW,2013-08-23 23:34:00,
2013-08-23 19:39:00,83.8,59.5,30.26,NE,45,0.0,0.8,44,0.00,,,0.00,WUHU216HW,2013-08-23 23:39:00,
2013-08-23 19:44:00,83.1,58.8,30.26,North,0,0.0,0.8,44,0.00,,,0.00,WUHU216HW,2013-08-23 23:44:00,
2013-08-23 19:49:00,82.7,58.5,30.26,NNE,23,0.0,0.0,44,0.00,,,0.00,WUHU216HW,2013-08-23 23:49:00,
2013-08-23 19:54:00,82.2,58.6,30.26,NNE,23,1.7,1.7,45,0.00,,,0.00,WUHU216HW,2013-08-23 23:54:00,
2013-08-23 19:59:00,81.6,58.1,30.26,NNW,338,0.0,1.7,45,0.00,,,0.00,WUHU216HW,2013-08-23 23:59:00,
2013-08-23 20:04:00,80.7,57.9,30.26,NNE,23,0.0,1.7,46,0.00,,,0.00,WUHU216HW,2013-08-24 00:04:00,
2013-08-23 20:09:00,80.4,58.2,30.26,NNE,23,0.0,0.0,47,0.00,,,0.00,WUHU216HW,2013-08-24 00:09:00,
2013-08-23 20:14:00,79.8,57.7,30.26,NE,45,0.0,0.0,47,0.00,,,0.00,WUHU216HW,2013-08-24 00:14:00,
2013-08-23 20:19:00,79.3,57.7,30.26,North,0,0.0,0.0,48,0.00,,,0.00,WUHU216HW,2013-08-24 00:19:00,
2013-08-23 20:24:00,78.6,57.2,30.26,North,0,0.0,0.0,48,0.00,,,0.00,WUHU216HW,2013-08-24 00:24:00,
2013-08-23 20:29:00,78.0,57.3,30.26,North,0,0.0,0.0,49,0.00,,,0.00,WUHU216HW,2013-08-24 00:29:00,
2013-08-23 20:34:00,77.5,57.5,30.26,North,0,0.0,0.0,50,0.00,,,0.00,WUHU216HW,2013-08-24 00:34:00,
2013-08-23 20:39:00,77.1,57.1,30.27,North,0,0.0,0.0,50,0.00,,,0.00,WUHU216HW,2013-08-24 00:39:00,
2013-08-23 20:44:00,76.8,57.3,30.26,North,0,0.0,0.0,51,0.00,,,0.00,WUHU216HW,2013-08-24 00:44:00,
2013-08-23 20:49:00,76.2,57.3,30.27,North,0,0.0,0.0,52,0.00,,,0.00,WUHU216HW,2013-08-24 00:49:00,
2013-08-23 20:54:00,75.9,57.5,30.27,North,0,0.0,0.0,53,0.00,,,0.00,WUHU216HW,2013-08-24 00:54:00,
2013-08-23 20:59:00,75.7,57.3,30.27,North,0,0.0,0.0,53,0.00,,,0.00,WUHU216HW,2013-08-24 00:59:00,
2013-08-23 21:04:00,75.5,57.2,30.27,North,0,0.0,0.0,53,0.00,,,0.00,WUHU216HW,2013-08-24 01:04:00,
2013-08-23 21:09:00,75.5,57.2,30.27,North,0,0.0,0.0,53,0.00,,,0.00,WUHU216HW,2013-08-24 01:09:00,